Time;durP1;ratioP1;P1;durP2;ratioP2;P2;SDS_P1;SDS_P2;PMS_P1;PMS_P2;Temp;Humidity;BMP_temperature;BMP_pressure;BME280_temperature;BME280_humidity;BME280_pressure;Samples;Min_cycle;Max_cycle;Signal;HPM_P1;HPM_P2
2021/12/13 00:00:19;;;;;;;80.97;27.88;;;;;;;;;;5016688;28;20037;-67
2021/12/13 00:03:03;;;;;;;64.93;27.80;;;;;;;;;;5016426;28;20030;-67
2021/12/13 00:05:33;;;;;;;69.82;28.02;;;;;;;;;;5016172;28;20041;-67
2021/12/13 00:08:05;;;;;;;63.10;26.73;;;;;;;;;;5018592;28;20041;-67
2021/12/13 00:10:38;;;;;;;65.15;28.83;;;;;;;;;;5036240;28;20323;-68
2021/12/13 00:13:11;;;;;;;71.80;28.02;;;;;;;;;;5018608;28;20026;-68
2021/12/13 00:15:47;;;;;;;72.40;26.45;;;;;;;;;;5035984;28;20355;-67
2021/12/13 00:18:20;;;;;;;73.47;26.77;;;;;;;;;;5018740;28;20330;-67
2021/12/13 00:20:53;;;;;;;68.38;26.90;;;;;;;;;;5036200;28;20024;-67
2021/12/13 00:23:32;;;;;;;77.45;28.33;;;;;;;;;;5018396;28;20662;-68
2021/12/13 00:26:02;;;;;;;63.95;26.33;;;;;;;;;;5037862;28;20022;-67
2021/12/13 00:28:33;;;;;;;68.28;27.80;;;;;;;;;;5040086;28;20333;-67
2021/12/13 00:31:19;;;;;;;68.75;29.38;;;;;;;;;;5022463;28;20021;-68
2021/12/13 00:34:04;;;;;;;70.82;27.17;;;;;;;;;;5022279;28;20387;-68
2021/12/13 00:36:36;;;;;;;71.95;30.17;;;;;;;;;;5022125;28;20029;-67
2021/12/13 00:39:08;;;;;;;74.95;28.02;;;;;;;;;;5039961;28;20017;-67
2021/12/13 00:41:36;;;;;;;68.78;27.98;;;;;;;;;;5040253;28;20021;-68
2021/12/13 00:44:08;;;;;;;88.68;38.38;;;;;;;;;;5039729;28;20037;-68
2021/12/13 00:46:37;;;;;;;96.25;39.75;;;;;;;;;;5039597;28;20027;-67
2021/12/13 00:49:07;;;;;;;90.88;36.15;;;;;;;;;;5039660;28;20029;-68
2021/12/13 00:51:37;;;;;;;80.15;31.92;;;;;;;;;;5021849;28;20025;-68
2021/12/13 00:54:22;;;;;;;89.53;37.90;;;;;;;;;;5022101;28;20304;-68
2021/12/13 00:57:08;;;;;;;107.88;43.00;;;;;;;;;;5039563;28;20018;-67
2021/12/13 00:59:40;;;;;;;81.80;35.80;;;;;;;;;;5039579;28;20029;-68
2021/12/13 01:02:09;;;;;;;76.10;27.85;;;;;;;;;;5039472;28;20101;-67
2021/12/13 01:04:54;;;;;;;101.53;41.13;;;;;;;;;;5039393;28;20057;-68
2021/12/13 01:07:40;;;;;;;121.07;54.13;;;;;;;;;;5038863;28;20147;-68
2021/12/13 01:10:26;;;;;;;129.65;65.82;;;;;;;;;;5039326;28;20036;-68
2021/12/13 01:12:55;;;;;;;139.32;62.05;;;;;;;;;;5039012;28;20033;-67
2021/12/13 01:15:35;;;;;;;103.38;47.47;;;;;;;;;;5038793;28;20327;-67
2021/12/13 01:18:22;;;;;;;96.80;39.85;;;;;;;;;;5038676;28;20018;-67
2021/12/13 01:21:13;;;;;;;87.28;35.97;;;;;;;;;;5038814;28;20322;-66
2021/12/13 01:23:46;;;;;;;83.25;35.65;;;;;;;;;;5039130;28;20747;-66
2021/12/13 01:26:38;;;;;;;77.85;33.88;;;;;;;;;;5038546;28;20120;-66
2021/12/13 01:29:11;;;;;;;94.85;36.92;;;;;;;;;;5021058;28;20423;-68
2021/12/13 01:31:40;;;;;;;94.63;39.53;;;;;;;;;;5038741;28;20104;-66
2021/12/13 01:34:08;;;;;;;122.75;44.33;;;;;;;;;;5038765;28;20103;-66
2021/12/13 01:36:44;;;;;;;124.72;43.85;;;;;;;;;;5038330;28;20053;-65
2021/12/13 01:39:13;;;;;;;112.65;42.38;;;;;;;;;;5038370;28;20482;-66
2021/12/13 01:41:43;;;;;;;109.38;42.45;;;;;;;;;;5038573;28;20040;-65
2021/12/13 01:44:15;;;;;;;111.63;43.30;;;;;;;;;;5021016;28;20033;-66
2021/12/13 01:46:45;;;;;;;90.38;40.90;;;;;;;;;;5038402;28;20498;-73
2021/12/13 01:49:13;;;;;;;88.32;37.63;;;;;;;;;;5038383;28;20518;-73
2021/12/13 01:51:46;;;;;;;108.85;44.03;;;;;;;;;;5038752;28;20101;-72
2021/12/13 01:54:23;;;;;;;108.38;47.35;;;;;;;;;;5038356;28;20031;-73
2021/12/13 01:59:56;;;;;;;123.00;51.83;;;;;;;;;;4996984;28;20027;-71
2021/12/13 02:02:37;;;;;;;123.82;53.63;;;;;;;;;;4997503;28;20030;-72
2021/12/13 02:05:20;;;;;;;133.10;56.75;;;;;;;;;;4996632;28;20039;-72
2021/12/13 02:08:00;;;;;;;156.50;63.95;;;;;;;;;;4994126;28;20501;-71
2021/12/13 02:10:35;;;;;;;160.80;66.53;;;;;;;;;;4980449;28;20463;-73
2021/12/13 02:13:07;;;;;;;170.02;69.05;;;;;;;;;;4980529;28;20523;-75
2021/12/13 02:18:25;;;;;;;179.07;73.00;;;;;;;;;;4977098;28;20332;-72
2021/12/13 02:21:05;;;;;;;199.68;84.07;;;;;;;;;;4976883;28;20054;-72
2021/12/13 02:23:38;;;;;;;203.80;83.35;;;;;;;;;;4976867;28;20409;-71
2021/12/13 02:26:05;;;;;;;238.30;90.78;;;;;;;;;;4976694;28;20031;-72
2021/12/13 02:28:35;;;;;;;212.23;90.20;;;;;;;;;;4976580;28;20026;-73
2021/12/13 02:31:12;;;;;;;219.43;91.63;;;;;;;;;;4976664;28;20048;-70
2021/12/13 02:33:45;;;;;;;219.98;93.60;;;;;;;;;;4976772;28;20042;-71
2021/12/13 02:36:14;;;;;;;238.45;93.53;;;;;;;;;;4982192;28;20026;-72
2021/12/13 02:38:44;;;;;;;251.20;103.22;;;;;;;;;;5007734;28;20117;-70
2021/12/13 02:41:11;;;;;;;249.73;102.80;;;;;;;;;;5011403;28;20107;-70
2021/12/13 02:43:41;;;;;;;237.43;103.00;;;;;;;;;;5014667;28;20025;-71
2021/12/13 02:46:09;;;;;;;242.48;101.35;;;;;;;;;;5039496;28;20033;-69
2021/12/13 02:48:42;;;;;;;250.65;106.30;;;;;;;;;;5036381;28;20086;-69
2021/12/13 02:51:16;;;;;;;249.52;108.25;;;;;;;;;;5037032;28;20105;-70
2021/12/13 02:53:54;;;;;;;265.10;110.28;;;;;;;;;;5018967;28;20533;-75
2021/12/13 02:56:25;;;;;;;252.52;112.72;;;;;;;;;;5037141;28;20030;-72
2021/12/13 02:58:56;;;;;;;255.80;111.53;;;;;;;;;;5037456;28;20017;-73
2021/12/13 03:01:30;;;;;;;262.80;115.00;;;;;;;;;;5036995;28;20025;-70
2021/12/13 03:04:00;;;;;;;252.05;111.25;;;;;;;;;;5036824;28;20029;-73
2021/12/13 03:06:29;;;;;;;248.52;112.68;;;;;;;;;;5036454;28;20127;-71
2021/12/13 03:09:10;;;;;;;234.75;107.07;;;;;;;;;;5034767;28;20029;-72
2021/12/13 03:11:48;;;;;;;240.77;106.72;;;;;;;;;;5133578;27;20420;-71
2021/12/13 03:14:19;;;;;;;227.63;99.43;;;;;;;;;;5122195;28;20332;-71
2021/12/13 03:16:51;;;;;;;213.63;101.07;;;;;;;;;;5122571;28;20032;-74
2021/12/13 03:19:40;;;;;;;198.75;100.20;;;;;;;;;;5119619;28;20042;-73
2021/12/13 03:22:26;;;;;;;133.52;55.08;;;;;;;;;;5060003;28;20037;-71
2021/12/13 03:25:10;;;;;;;153.02;58.90;;;;;;;;;;5044124;28;20032;-70
2021/12/13 03:28:03;;;;;;;136.13;49.85;;;;;;;;;;5042540;28;20122;-71
2021/12/13 03:30:33;;;;;;;163.25;57.83;;;;;;;;;;5058898;28;20021;-69
2021/12/13 03:33:08;;;;;;;129.95;49.92;;;;;;;;;;5059142;28;20037;-70
2021/12/13 03:35:43;;;;;;;135.77;52.47;;;;;;;;;;5039939;28;20068;-73
2021/12/13 03:38:13;;;;;;;142.70;52.17;;;;;;;;;;5058303;28;20105;-75
2021/12/13 03:40:41;;;;;;;157.57;69.30;;;;;;;;;;5059409;28;20037;-72
2021/12/13 03:43:11;;;;;;;159.25;70.35;;;;;;;;;;5042280;28;20024;-72
2021/12/13 03:45:42;;;;;;;232.30;106.72;;;;;;;;;;5055069;28;20049;-69
2021/12/13 03:48:11;;;;;;;271.50;116.25;;;;;;;;;;5033688;28;20049;-70
2021/12/13 03:50:40;;;;;;;294.15;126.35;;;;;;;;;;5033808;28;20029;-68
2021/12/13 03:53:11;;;;;;;155.30;63.92;;;;;;;;;;5033893;28;20041;-70
2021/12/13 03:55:39;;;;;;;136.63;55.50;;;;;;;;;;5050530;28;20064;-69
2021/12/13 03:58:09;;;;;;;142.05;59.97;;;;;;;;;;5037133;28;20113;-69
2021/12/13 04:00:39;;;;;;;145.93;61.90;;;;;;;;;;5111829;28;20032;-73
2021/12/13 04:03:10;;;;;;;127.03;58.58;;;;;;;;;;5112974;28;20076;-70
2021/12/13 04:05:38;;;;;;;137.40;56.42;;;;;;;;;;5111680;28;20370;-70
2021/12/13 04:08:09;;;;;;;139.20;58.90;;;;;;;;;;5112485;28;20024;-67
2021/12/13 04:10:38;;;;;;;154.32;60.90;;;;;;;;;;5111288;28;20052;-68
2021/12/13 04:13:10;;;;;;;150.70;61.85;;;;;;;;;;5111689;28;20050;-69
2021/12/13 04:15:53;;;;;;;148.65;59.22;;;;;;;;;;5112428;28;20016;-68
2021/12/13 04:21:46;;;;;;;168.15;64.82;;;;;;;;;;5085570;28;20393;-66
2021/12/13 04:24:28;;;;;;;132.98;51.92;;;;;;;;;;5059725;28;20115;-66
2021/12/13 04:26:58;;;;;;;128.98;57.50;;;;;;;;;;5059996;28;20033;-66
2021/12/13 04:29:29;;;;;;;134.30;51.67;;;;;;;;;;5059341;28;20208;-70
2021/12/13 04:31:57;;;;;;;132.73;52.45;;;;;;;;;;5059287;28;20037;-69
2021/12/13 04:34:26;;;;;;;113.57;47.45;;;;;;;;;;5076219;28;20025;-69
2021/12/13 04:36:55;;;;;;;121.78;49.72;;;;;;;;;;5076281;28;20044;-70
2021/12/13 04:39:28;;;;;;;117.45;49.90;;;;;;;;;;5076860;28;20453;-67
2021/12/13 04:41:59;;;;;;;127.50;52.35;;;;;;;;;;5076444;28;20103;-76
2021/12/13 04:44:28;;;;;;;132.35;53.40;;;;;;;;;;5076832;28;20074;-72
2021/12/13 04:46:56;;;;;;;141.10;57.88;;;;;;;;;;5075855;28;20102;-68
2021/12/13 04:49:26;;;;;;;132.35;54.47;;;;;;;;;;5075555;28;20059;-69
2021/12/13 04:51:57;;;;;;;130.98;54.85;;;;;;;;;;5075572;28;20040;-73
2021/12/13 04:54:26;;;;;;;132.80;54.03;;;;;;;;;;5076293;28;20020;-71
2021/12/13 04:56:55;;;;;;;141.30;56.90;;;;;;;;;;5076331;28;20042;-69
2021/12/13 04:59:23;;;;;;;135.50;53.08;;;;;;;;;;5094021;28;20029;-69
2021/12/13 05:01:53;;;;;;;143.85;54.13;;;;;;;;;;5097623;28;20023;-68
2021/12/13 05:04:25;;;;;;;139.63;53.10;;;;;;;;;;5095540;28;20060;-69
2021/12/13 05:06:54;;;;;;;147.52;55.58;;;;;;;;;;5095906;28;20028;-68
2021/12/13 05:09:21;;;;;;;131.43;55.03;;;;;;;;;;5095595;28;20507;-69
2021/12/13 05:11:54;;;;;;;114.10;52.22;;;;;;;;;;5076005;28;20025;-69
2021/12/13 05:14:39;;;;;;;126.80;50.92;;;;;;;;;;5075485;28;20086;-68
2021/12/13 05:17:12;;;;;;;136.60;64.50;;;;;;;;;;5076306;28;20095;-68
2021/12/13 05:19:51;;;;;;;122.93;51.55;;;;;;;;;;5075595;28;20032;-70
2021/12/13 05:22:20;;;;;;;117.60;50.20;;;;;;;;;;5075453;28;20024;-70
2021/12/13 05:24:49;;;;;;;118.80;45.45;;;;;;;;;;5075242;28;20063;-70
2021/12/13 05:27:24;;;;;;;121.35;45.97;;;;;;;;;;5074868;28;20031;-70
2021/12/13 05:29:52;;;;;;;120.40;50.25;;;;;;;;;;5056347;28;20041;-71
2021/12/13 05:32:37;;;;;;;114.65;47.53;;;;;;;;;;5055265;28;20155;-71
2021/12/13 05:35:25;;;;;;;104.47;47.38;;;;;;;;;;5047423;28;20178;-71
2021/12/13 05:37:55;;;;;;;109.20;43.97;;;;;;;;;;5038718;28;20107;-70
2021/12/13 05:40:25;;;;;;;119.10;47.10;;;;;;;;;;5069586;28;20033;-72
2021/12/13 05:42:55;;;;;;;119.68;41.60;;;;;;;;;;5037058;28;20025;-71
2021/12/13 05:45:35;;;;;;;117.70;46.17;;;;;;;;;;5037227;28;20036;-70
2021/12/13 05:48:07;;;;;;;119.30;43.58;;;;;;;;;;5069183;28;20033;-71
2021/12/13 05:50:37;;;;;;;93.55;43.08;;;;;;;;;;5069921;28;20025;-70
2021/12/13 05:53:10;;;;;;;85.70;38.45;;;;;;;;;;5037874;28;20453;-71
2021/12/13 05:55:53;;;;;;;89.63;35.53;;;;;;;;;;5069510;28;20026;-72
2021/12/13 05:58:37;;;;;;;93.35;39.50;;;;;;;;;;5069522;28;20025;-71
2021/12/13 06:01:12;;;;;;;101.78;41.70;;;;;;;;;;5036848;28;20104;-70
2021/12/13 06:03:42;;;;;;;111.45;46.95;;;;;;;;;;5036412;28;20025;-71
2021/12/13 06:06:15;;;;;;;116.75;44.67;;;;;;;;;;5068546;28;20025;-71
2021/12/13 06:08:48;;;;;;;104.63;43.22;;;;;;;;;;5036681;28;20025;-71
2021/12/13 06:11:18;;;;;;;94.30;36.85;;;;;;;;;;5068839;28;20090;-73
2021/12/13 06:13:44;;;;;;;87.03;35.45;;;;;;;;;;5074877;28;20025;-71
2021/12/13 06:16:40;;;;;;;91.55;37.88;;;;;;;;;;5076569;28;20017;-71
2021/12/13 06:19:09;;;;;;;118.55;41.33;;;;;;;;;;5071930;28;20041;-72
2021/12/13 06:21:52;;;;;;;97.72;39.80;;;;;;;;;;5075051;28;20033;-70
2021/12/13 06:24:28;;;;;;;90.07;36.80;;;;;;;;;;5074714;28;20021;-69
2021/12/13 06:27:04;;;;;;;94.88;44.38;;;;;;;;;;5076024;28;20032;-71
2021/12/13 06:29:50;;;;;;;87.03;38.15;;;;;;;;;;5075914;28;20029;-71
2021/12/13 06:32:26;;;;;;;86.22;34.35;;;;;;;;;;5074628;28;20038;-70
2021/12/13 06:34:53;;;;;;;85.55;34.90;;;;;;;;;;5078417;28;20035;-72
2021/12/13 06:37:26;;;;;;;94.03;37.75;;;;;;;;;;5075825;28;20028;-71
2021/12/13 06:40:10;;;;;;;86.13;36.30;;;;;;;;;;5074805;28;20029;-71
2021/12/13 06:42:37;;;;;;;82.55;31.50;;;;;;;;;;5074742;28;20106;-71
2021/12/13 06:45:18;;;;;;;78.22;34.85;;;;;;;;;;5074377;28;20046;-70
2021/12/13 06:47:50;;;;;;;62.17;26.95;;;;;;;;;;5075934;28;20032;-71
2021/12/13 06:50:27;;;;;;;47.55;21.17;;;;;;;;;;5075754;28;20095;-72
2021/12/13 06:53:15;;;;;;;43.00;18.42;;;;;;;;;;5075631;28;20019;-71
2021/12/13 06:55:43;;;;;;;45.15;18.73;;;;;;;;;;5074502;28;20031;-72
2021/12/13 06:58:22;;;;;;;39.08;19.70;;;;;;;;;;5075740;28;20031;-71
2021/12/13 07:00:51;;;;;;;55.08;24.15;;;;;;;;;;5074596;28;20025;-70
2021/12/13 07:03:22;;;;;;;83.22;47.97;;;;;;;;;;5075561;28;20024;-71
2021/12/13 07:05:53;;;;;;;184.93;105.78;;;;;;;;;;5075551;28;20028;-71
2021/12/13 07:08:27;;;;;;;109.05;62.00;;;;;;;;;;5075302;28;20421;-71
2021/12/13 07:10:57;;;;;;;81.22;44.13;;;;;;;;;;5074238;28;20429;-69
2021/12/13 07:13:26;;;;;;;78.22;36.35;;;;;;;;;;5075548;28;20045;-71
2021/12/13 07:16:07;;;;;;;77.30;40.25;;;;;;;;;;5090538;28;20067;-71
2021/12/13 07:18:56;;;;;;;73.25;33.20;;;;;;;;;;5090396;28;20028;-71
2021/12/13 07:21:33;;;;;;;68.53;36.58;;;;;;;;;;5089800;28;20074;-70
2021/12/13 07:24:09;;;;;;;64.70;31.90;;;;;;;;;;5073700;28;20040;-71
2021/12/13 07:26:55;;;;;;;71.28;30.58;;;;;;;;;;5090645;28;20028;-70
2021/12/13 07:29:37;;;;;;;60.72;32.50;;;;;;;;;;5036616;28;20167;-70
2021/12/13 07:32:14;;;;;;;74.82;33.65;;;;;;;;;;5036830;28;20063;-71
2021/12/13 07:34:59;;;;;;;75.85;34.03;;;;;;;;;;5055003;28;20108;-70
2021/12/13 07:37:38;;;;;;;75.78;35.30;;;;;;;;;;5053403;28;20021;-72
2021/12/13 07:40:26;;;;;;;83.57;41.80;;;;;;;;;;5059111;28;20086;-69
2021/12/13 07:42:56;;;;;;;93.65;46.20;;;;;;;;;;5072636;28;20066;-70
2021/12/13 07:45:36;;;;;;;102.63;51.60;;;;;;;;;;5072393;28;20051;-69
2021/12/13 07:48:13;;;;;;;116.05;56.53;;;;;;;;;;5053282;28;20397;-69
2021/12/13 07:50:41;;;;;;;116.20;57.75;;;;;;;;;;5036415;28;20037;-71
2021/12/13 07:53:12;;;;;;;115.90;54.17;;;;;;;;;;5033017;28;20079;-69
2021/12/13 07:55:46;;;;;;;114.10;53.88;;;;;;;;;;5049760;28;20037;-71
2021/12/13 07:58:31;;;;;;;110.13;50.40;;;;;;;;;;5059613;28;20029;-71
2021/12/13 08:01:07;;;;;;;108.78;50.45;;;;;;;;;;5067406;28;20036;-72
2021/12/13 08:03:43;;;;;;;99.50;49.25;;;;;;;;;;5060009;28;20037;-73
2021/12/13 08:06:11;;;;;;;83.35;39.20;;;;;;;;;;5060125;28;20112;-72
2021/12/13 08:08:46;;;;;;;77.25;38.95;;;;;;;;;;5059860;28;20025;-71
2021/12/13 08:11:12;;;;;;;90.18;40.67;;;;;;;;;;5059338;28;20531;-74
2021/12/13 08:13:40;;;;;;;87.57;41.10;;;;;;;;;;5077074;28;20032;-73
2021/12/13 08:16:09;;;;;;;84.45;36.97;;;;;;;;;;5077031;28;20036;-73
2021/12/13 08:18:38;;;;;;;77.53;35.70;;;;;;;;;;5060051;28;20063;-71
2021/12/13 08:21:08;;;;;;;73.82;38.47;;;;;;;;;;5036447;28;20528;-70
2021/12/13 08:23:46;;;;;;;74.40;37.15;;;;;;;;;;5036602;28;20414;-74
2021/12/13 08:26:16;;;;;;;81.40;38.72;;;;;;;;;;5036510;28;20029;-73
2021/12/13 08:28:49;;;;;;;78.50;40.65;;;;;;;;;;5036669;28;20060;-73
2021/12/13 08:31:25;;;;;;;79.70;39.35;;;;;;;;;;5040929;28;20029;-72
2021/12/13 08:33:55;;;;;;;85.50;38.85;;;;;;;;;;5040032;28;20029;-76
2021/12/13 08:36:34;;;;;;;81.38;38.25;;;;;;;;;;5036460;28;20109;-73
2021/12/13 08:39:22;;;;;;;73.97;36.35;;;;;;;;;;5036379;28;20037;-73
2021/12/13 08:42:10;;;;;;;81.60;37.95;;;;;;;;;;5037234;28;20034;-72
2021/12/13 08:44:40;;;;;;;75.90;36.45;;;;;;;;;;5052608;28;20121;-73
2021/12/13 08:47:17;;;;;;;83.95;38.58;;;;;;;;;;5036440;28;20061;-73
2021/12/13 08:49:51;;;;;;;92.18;38.45;;;;;;;;;;5036635;28;20029;-75
2021/12/13 08:52:23;;;;;;;81.63;37.15;;;;;;;;;;5036577;28;20113;-74
2021/12/13 08:55:08;;;;;;;84.97;37.33;;;;;;;;;;5036707;28;20101;-76
2021/12/13 08:57:54;;;;;;;78.00;38.33;;;;;;;;;;5041091;28;20026;-69
2021/12/13 09:00:35;;;;;;;75.40;37.65;;;;;;;;;;5077392;28;20029;-69
2021/12/13 09:03:28;;;;;;;83.63;36.00;;;;;;;;;;5077415;28;20020;-71
2021/12/13 09:06:06;;;;;;;72.75;34.70;;;;;;;;;;5056545;28;20036;-71
2021/12/13 09:08:51;;;;;;;99.85;34.60;;;;;;;;;;5039681;28;20063;-69
2021/12/13 09:11:17;;;;;;;90.18;37.70;;;;;;;;;;5056558;28;20099;-68
2021/12/13 09:13:53;;;;;;;76.80;35.78;;;;;;;;;;5041310;28;20058;-72
2021/12/13 09:16:25;;;;;;;79.25;36.10;;;;;;;;;;5039711;28;20033;-72
2021/12/13 09:19:11;;;;;;;103.30;43.17;;;;;;;;;;5056225;28;20099;-72
2021/12/13 09:21:46;;;;;;;86.40;42.65;;;;;;;;;;5039263;28;20603;-66
2021/12/13 09:24:22;;;;;;;85.90;41.90;;;;;;;;;;5039059;28;20342;-68
2021/12/13 09:26:51;;;;;;;96.03;38.50;;;;;;;;;;5036249;28;20057;-72
2021/12/13 09:29:22;;;;;;;88.10;39.60;;;;;;;;;;5010604;28;20029;-72
2021/12/13 09:31:52;;;;;;;80.05;35.58;;;;;;;;;;5024410;28;20087;-72
2021/12/13 09:34:25;;;;;;;82.15;39.22;;;;;;;;;;5013425;28;20104;-73
2021/12/13 09:36:55;;;;;;;78.18;34.00;;;;;;;;;;5010084;28;20064;-70
2021/12/13 09:39:29;;;;;;;79.72;33.70;;;;;;;;;;5012938;28;20025;-72
2021/12/13 09:42:08;;;;;;;59.67;29.25;;;;;;;;;;5037681;28;20422;-73
2021/12/13 09:44:50;;;;;;;67.68;29.73;;;;;;;;;;5108501;28;20032;-72
2021/12/13 09:47:22;;;;;;;66.80;31.15;;;;;;;;;;5107419;28;20316;-70
2021/12/13 09:50:01;;;;;;;60.17;25.90;;;;;;;;;;5110982;28;20357;-71
2021/12/13 09:55:42;;;;;;;54.30;26.05;;;;;;;;;;4908010;26;20058;-73
2021/12/13 09:58:16;;;;;;;54.65;25.75;;;;;;;;;;5013536;28;20156;-72
2021/12/13 10:00:48;;;;;;;63.75;28.75;;;;;;;;;;4998316;28;20022;-73
2021/12/13 10:03:18;;;;;;;56.97;28.80;;;;;;;;;;4998097;28;20030;-71
2021/12/13 10:05:48;;;;;;;64.40;28.00;;;;;;;;;;5013599;28;20038;-70
2021/12/13 10:08:21;;;;;;;56.70;27.50;;;;;;;;;;5013458;28;20034;-72
2021/12/13 10:10:54;;;;;;;64.85;28.77;;;;;;;;;;5013245;28;20114;-70
2021/12/13 10:13:25;;;;;;;61.17;27.23;;;;;;;;;;5013934;28;20042;-70
2021/12/13 10:15:55;;;;;;;64.93;26.88;;;;;;;;;;4998635;28;20026;-71
2021/12/13 10:18:26;;;;;;;59.28;28.75;;;;;;;;;;5000643;28;20062;-69
2021/12/13 10:20:58;;;;;;;56.20;27.10;;;;;;;;;;4997251;28;20114;-69
2021/12/13 10:23:28;;;;;;;64.10;28.27;;;;;;;;;;5013061;28;20022;-72
2021/12/13 10:26:00;;;;;;;58.58;27.02;;;;;;;;;;5013519;28;20053;-72
2021/12/13 10:28:30;;;;;;;58.38;26.55;;;;;;;;;;5013425;28;20431;-72
2021/12/13 10:31:03;;;;;;;58.65;26.83;;;;;;;;;;4995472;28;20387;-69
2021/12/13 10:33:31;;;;;;;55.85;28.23;;;;;;;;;;4995676;28;20037;-71
2021/12/13 10:36:02;;;;;;;51.50;25.70;;;;;;;;;;4995386;28;20037;-69
2021/12/13 10:38:32;;;;;;;58.70;25.67;;;;;;;;;;4995045;28;20027;-70
2021/12/13 10:41:04;;;;;;;57.67;27.80;;;;;;;;;;4995181;28;20061;-70
2021/12/13 10:43:36;;;;;;;61.97;26.05;;;;;;;;;;4978880;28;20049;-69
2021/12/13 10:46:07;;;;;;;59.17;25.50;;;;;;;;;;4995164;28;20037;-72
2021/12/13 10:48:42;;;;;;;54.63;25.13;;;;;;;;;;4975467;28;20035;-72
2021/12/13 10:51:20;;;;;;;54.65;25.10;;;;;;;;;;4975397;28;20038;-71
2021/12/13 10:53:50;;;;;;;65.57;25.88;;;;;;;;;;4975100;28;20061;-70
2021/12/13 10:56:24;;;;;;;61.70;27.33;;;;;;;;;;4975258;28;20043;-68
2021/12/13 10:58:54;;;;;;;59.28;25.90;;;;;;;;;;4975119;28;20030;-73
2021/12/13 11:01:25;;;;;;;58.53;26.70;;;;;;;;;;4975618;28;20388;-71
2021/12/13 11:03:53;;;;;;;53.17;25.90;;;;;;;;;;4975353;28;20034;-71
2021/12/13 11:06:21;;;;;;;56.80;27.77;;;;;;;;;;4959126;28;20039;-71
2021/12/13 11:08:50;;;;;;;63.35;27.70;;;;;;;;;;4975203;28;20035;-71
2021/12/13 11:11:40;;;;;;;59.17;27.05;;;;;;;;;;4975428;28;20084;-73
2021/12/13 11:14:10;;;;;;;61.55;27.67;;;;;;;;;;4975543;28;20045;-72
2021/12/13 11:16:43;;;;;;;69.45;28.98;;;;;;;;;;4975135;28;20452;-72
2021/12/13 11:19:12;;;;;;;74.10;29.08;;;;;;;;;;4975666;28;20078;-72
2021/12/13 11:21:41;;;;;;;68.80;29.90;;;;;;;;;;4975225;28;20030;-72
2021/12/13 11:24:19;;;;;;;68.35;29.70;;;;;;;;;;4975019;28;20030;-71
2021/12/13 11:26:48;;;;;;;70.82;28.73;;;;;;;;;;4975423;28;20162;-71
2021/12/13 11:29:16;;;;;;;80.63;29.83;;;;;;;;;;4975295;28;20030;-71
2021/12/13 11:32:00;;;;;;;70.75;30.73;;;;;;;;;;4976190;28;20050;-72
2021/12/13 11:34:45;;;;;;;78.63;33.88;;;;;;;;;;4978971;28;20027;-71
2021/12/13 11:37:30;;;;;;;70.45;31.85;;;;;;;;;;4979027;28;20026;-71
2021/12/13 11:40:15;;;;;;;85.82;36.20;;;;;;;;;;4979091;28;20482;-72
2021/12/13 11:43:03;;;;;;;117.43;52.40;;;;;;;;;;4979388;28;20034;-71
2021/12/13 11:45:48;;;;;;;130.63;55.22;;;;;;;;;;4992183;28;20395;-71
2021/12/13 11:48:34;;;;;;;144.75;58.60;;;;;;;;;;5016257;28;20076;-71
2021/12/13 11:51:10;;;;;;;132.43;54.80;;;;;;;;;;5018049;28;20073;-71
2021/12/13 11:53:43;;;;;;;134.27;53.67;;;;;;;;;;5003288;28;20100;-71
2021/12/13 11:56:29;;;;;;;109.53;49.13;;;;;;;;;;5015942;28;20026;-70
2021/12/13 11:59:16;;;;;;;95.95;41.28;;;;;;;;;;5016255;28;20026;-71
2021/12/13 12:02:01;;;;;;;80.03;37.03;;;;;;;;;;5016662;28;20031;-71
2021/12/13 12:04:48;;;;;;;101.60;39.58;;;;;;;;;;5006699;28;20034;-71
2021/12/13 12:07:41;;;;;;;88.35;38.13;;;;;;;;;;5029900;28;20045;-72
2021/12/13 12:10:31;;;;;;;97.75;38.45;;;;;;;;;;5011306;28;20022;-71
2021/12/13 12:13:16;;;;;;;111.55;41.92;;;;;;;;;;5006952;28;20037;-71
2021/12/13 12:15:45;;;;;;;121.38;45.42;;;;;;;;;;5008213;28;20084;-71
2021/12/13 12:18:16;;;;;;;121.28;46.88;;;;;;;;;;5003174;28;20122;-72
2021/12/13 12:20:46;;;;;;;150.73;51.90;;;;;;;;;;4999160;28;20088;-71
2021/12/13 12:23:33;;;;;;;183.95;59.10;;;;;;;;;;4997919;28;20084;-71
2021/12/13 12:26:02;;;;;;;192.00;67.85;;;;;;;;;;4998197;28;20030;-71
2021/12/13 12:28:34;;;;;;;251.50;106.68;;;;;;;;;;4998221;28;20030;-71
2021/12/13 12:31:02;;;;;;;227.30;85.05;;;;;;;;;;4998110;28;20034;-72
2021/12/13 12:33:33;;;;;;;205.45;80.95;;;;;;;;;;4997888;28;20045;-72
2021/12/13 12:36:09;;;;;;;205.05;80.43;;;;;;;;;;4997528;28;20048;-71
2021/12/13 12:39:01;;;;;;;211.55;85.45;;;;;;;;;;4997578;28;20030;-72
2021/12/13 12:41:46;;;;;;;209.80;88.80;;;;;;;;;;4998861;28;20049;-73
2021/12/13 12:44:18;;;;;;;218.77;89.93;;;;;;;;;;4996924;28;20037;-73
2021/12/13 12:46:46;;;;;;;365.48;140.30;;;;;;;;;;4996975;28;20030;-72
2021/12/13 12:49:16;;;;;;;388.00;169.85;;;;;;;;;;4997452;28;20308;-71
2021/12/13 12:51:44;;;;;;;566.10;256.70;;;;;;;;;;5014425;28;20030;-72
2021/12/13 12:54:14;;;;;;;458.02;203.18;;;;;;;;;;4999082;28;20077;-71
2021/12/13 12:56:59;;;;;;;309.42;146.60;;;;;;;;;;4999272;28;20023;-72
2021/12/13 12:59:38;;;;;;;303.88;132.40;;;;;;;;;;4999149;28;20104;-71
2021/12/13 13:02:11;;;;;;;282.55;124.72;;;;;;;;;;5014146;28;20030;-71
2021/12/13 13:04:43;;;;;;;298.42;138.07;;;;;;;;;;4998982;28;20050;-71
2021/12/13 13:07:14;;;;;;;275.63;123.57;;;;;;;;;;5014114;28;20113;-71
2021/12/13 13:09:56;;;;;;;269.00;112.47;;;;;;;;;;5013896;28;20068;-70
2021/12/13 13:12:37;;;;;;;333.05;127.13;;;;;;;;;;5013624;28;20022;-71
2021/12/13 13:15:14;;;;;;;243.48;106.78;;;;;;;;;;5029851;28;20046;-70
2021/12/13 13:17:57;;;;;;;216.45;102.68;;;;;;;;;;5013824;28;20053;-72
2021/12/13 13:20:30;;;;;;;193.80;88.13;;;;;;;;;;4998593;28;20323;-70
2021/12/13 13:22:58;;;;;;;194.93;93.70;;;;;;;;;;5013733;28;20037;-70
2021/12/13 13:25:29;;;;;;;190.07;88.65;;;;;;;;;;5013748;28;20030;-69
2021/12/13 13:27:58;;;;;;;180.07;86.03;;;;;;;;;;5013609;28;20062;-69
2021/12/13 13:30:40;;;;;;;168.15;81.07;;;;;;;;;;5013344;28;20084;-67
2021/12/13 13:33:08;;;;;;;164.10;75.07;;;;;;;;;;4998305;28;20022;-69
2021/12/13 13:35:35;;;;;;;169.38;76.07;;;;;;;;;;4998104;28;20018;-68
2021/12/13 13:38:13;;;;;;;172.82;76.03;;;;;;;;;;4998229;28;20023;-69
2021/12/13 13:40:41;;;;;;;161.30;75.35;;;;;;;;;;5013588;28;20057;-70
2021/12/13 13:43:10;;;;;;;159.57;75.75;;;;;;;;;;5013325;28;20092;-69
2021/12/13 13:45:44;;;;;;;157.70;79.07;;;;;;;;;;5013213;28;20026;-69
2021/12/13 13:48:31;;;;;;;174.38;78.88;;;;;;;;;;5012929;28;20034;-70
2021/12/13 13:51:16;;;;;;;168.20;76.50;;;;;;;;;;4995974;28;20046;-70
2021/12/13 13:53:47;;;;;;;173.48;79.00;;;;;;;;;;4995364;28;20196;-70
2021/12/13 13:56:13;;;;;;;178.70;84.55;;;;;;;;;;4995097;28;20034;-70
2021/12/13 13:58:54;;;;;;;169.68;79.78;;;;;;;;;;4995985;28;20061;-71
2021/12/13 14:01:28;;;;;;;178.38;85.90;;;;;;;;;;4995826;28;20034;-71
2021/12/13 14:04:03;;;;;;;206.60;95.30;;;;;;;;;;4995760;28;20425;-70
2021/12/13 14:06:38;;;;;;;208.50;96.30;;;;;;;;;;4995690;28;20026;-71
2021/12/13 14:09:10;;;;;;;184.93;83.60;;;;;;;;;;4995506;28;20093;-70
2021/12/13 14:11:48;;;;;;;157.65;69.15;;;;;;;;;;4995626;28;20411;-71
2021/12/13 14:14:16;;;;;;;128.57;58.35;;;;;;;;;;4995606;28;20035;-71
2021/12/13 14:16:48;;;;;;;122.80;56.80;;;;;;;;;;4995437;28;20022;-71
2021/12/13 14:19:27;;;;;;;154.68;67.60;;;;;;;;;;4995543;28;20053;-71
2021/12/13 14:21:55;;;;;;;166.20;72.15;;;;;;;;;;4995398;28;20140;-71
2021/12/13 14:24:32;;;;;;;230.57;110.15;;;;;;;;;;4995326;28;20321;-71
2021/12/13 14:27:20;;;;;;;221.70;101.35;;;;;;;;;;4995232;28;20027;-71
2021/12/13 14:29:49;;;;;;;251.35;110.57;;;;;;;;;;4997049;28;20368;-71
2021/12/13 14:32:16;;;;;;;236.93;103.32;;;;;;;;;;4997184;28;20023;-70
2021/12/13 14:34:44;;;;;;;224.68;99.00;;;;;;;;;;5012488;28;20333;-70
2021/12/13 14:37:13;;;;;;;192.70;87.18;;;;;;;;;;5013177;28;20034;-70
2021/12/13 14:39:46;;;;;;;178.73;75.00;;;;;;;;;;4997405;28;20026;-72
2021/12/13 14:42:18;;;;;;;140.13;67.72;;;;;;;;;;5012411;28;20027;-71
2021/12/13 14:44:59;;;;;;;143.00;58.45;;;;;;;;;;5012541;28;20049;-70
2021/12/13 14:47:39;;;;;;;115.95;52.60;;;;;;;;;;5012188;28;20137;-69
2021/12/13 14:50:12;;;;;;;102.82;46.33;;;;;;;;;;4996937;28;20030;-70
2021/12/13 14:52:45;;;;;;;105.07;44.53;;;;;;;;;;5012377;28;20041;-69
2021/12/13 14:55:13;;;;;;;103.45;42.50;;;;;;;;;;5011832;28;20061;-70
2021/12/13 14:57:41;;;;;;;99.20;42.50;;;;;;;;;;4996979;28;20494;-71
2021/12/13 15:00:14;;;;;;;94.72;41.08;;;;;;;;;;4996729;28;20026;-71
2021/12/13 15:02:47;;;;;;;90.25;39.17;;;;;;;;;;4996722;28;20032;-70